KHKS/HKS METAR and TAF weather

Enter ICAO airport designator
Station Type Date Time Source
KHKS METAR 2019/04/23 03:53 UTC NOAA

KHKS 230353Z AUTO 13004KT 10SM CLR 18/13 A3012 RMK AO2 SLP192 T01780128


Station Type Date Time Source
KHKS Decoded METAR 2019/04/23 03:53 UTC NOAA

HAWKINS FIELD, MS, United States (KHKS) 32-20N 090-13W 108M
Apr 22, 2019 - 11:53 PM EDT / 2019.04.23 0353 UTC
Wind: from the SE (130 degrees) at 5 MPH (4 KT):0
Visibility: 10 mile(s):0
Sky conditions: clear
Temperature: 64.0 F (17.8 C)
Dew Point: 55.0 F (12.8 C)
Relative Humidity: 72%
Pressure (altimeter): 30.12 in. Hg (1019 hPa)
ob: KHKS 230353Z AUTO 13004KT 10SM CLR 18/13 A3012 RMK AO2 SLP192 T01780128
cycle: 4

Station Type Date Time Source
KHKS TAF 2019/04/22 18:22 UTC NOAA

TAF KHKS 221720Z 2218/2318 17008KT P6SM FEW250

Example: see airport list